Nearby METAR Reports

 

EGNV - Tees-Side, United Kingdom
Distance from station: W 8mi, 13km
Updated: 25/02/2020 07:50
Partly cloudy
Partly cloudy
 Wind from SE
Wind: SE 6 mph , 9 km/h
Temperature: 1°C
Wind Chill: -2°C
Dew Point: 0°C
Humidity: 93%
Barometer: 995 hPa
Clouds: Partly cloudy
Visibility: 6 miles , 10 km
Cloud details: Partly cloudy 762 m
2020/02/25 07:50 EGNV 250750Z 14005KT 9999 SCT025 01/M00 Q0995
EGXE - Leeming Raf, United Kingdom
Distance from station: SW 21mi, 34km
Updated: 25/02/2020 07:50
Light rain, Showers, Mostly cloudy
Light rain, Showers, Mostly cloudy
 Wind from S
Wind: S 9 mph , 15 km/h
Temperature: 3°C
Wind Chill: -1°C
Dew Point: 0°C
Humidity: 81%
Barometer: 995 hPa
Summary: Light rain, Showers
Clouds: Mostly cloudy
Visibility: 6 miles , 10 km
Cloud details: Few Clouds 488 m
Mostly cloudy 762 m
2020/02/25 07:50 EGXE 250750Z 19008KT 9999 -SHRA FEW016 BKN025 03/00 Q0995 TEMPO SCT016 RMK BLU TEMPO WHT
 
EGXZ - Topcliffe Raf, United Kingdom
Distance from station: SSW 24mi, 38km
Updated: 25/02/2020 07:50
Light rain, Partly cloudy
Light rain, Partly cloudy
 Wind from WSW
Wind: WSW 9 mph , 15 km/h
Temperature: 4°C
Wind Chill: 1°C
Dew Point: 1°C
Humidity: 81%
Barometer: 996 hPa
Summary: Light rain
Clouds: Partly cloudy
Visibility: 6 miles , 10 km
Cloud details: Partly cloudy 518 m
Partly cloudy 732 m
2020/02/25 07:50 EGXZ 250750Z AUTO 24008KT 9999 -RA SCT017/// SCT024/// 04/01 Q0996
EGXD - Dishforth Raf, United Kingdom
Distance from station: SSW 29mi, 46km
Updated: 06/06/2016 10:50
NOT Current
Clear
Clear
 Wind from SSE
Wind: SSE 5 mph , 7 km/h
Temperature: 18°C
Dew Point: 11°C
Humidity: 64%
Barometer: 1023 hPa
Clouds: Clear
Visibility: 6 miles , 10 km
2016/06/06 09:50 EGXD 060950Z AUTO 16004KT 9999 // NCD 18/11 Q1023
 
EGXU - Linton-On-Ouse R, United Kingdom
Distance from station: S 33mi, 53km
Updated: 25/02/2020 07:50
Mostly cloudy
Mostly cloudy
 Wind from W
Wind: W 9 mph , 15 km/h
Temperature: 3°C
Wind Chill: -1°C
Dew Point: 1°C
Humidity: 87%
Barometer: 996 hPa
Clouds: Mostly cloudy
Visibility: 6 miles , 10 km
Cloud details: Few Clouds 457 m
Mostly cloudy 1829 m
2020/02/25 07:50 EGXU 250750Z 26008KT 9999 FEW015 BKN060 03/01 Q0996 RMK BLU
EGNT - Newcastle, United Kingdom
Distance from station: NNW 39mi, 63km
Updated: 25/02/2020 07:50
Few Clouds
Few Clouds
 Wind from W
Wind: W 9 mph , 15 km/h
Temperature: 1°C
Wind Chill: -3°C
Dew Point: 0°C
Humidity: 93%
Barometer: 993 hPa
Clouds: Few Clouds
Visibility: 6 miles , 10 km
Cloud details: Few Clouds 427 m
2020/02/25 07:50 EGNT 250750Z 26008KT 9999 FEW014 01/00 Q0993
 
EGNM - Leeds And Bradfo, United Kingdom
Distance from station: SSW 49mi, 79km
Updated: 25/02/2020 07:50
Light snow, Showers, Rain, Partly cloudy
Light snow, Showers, Rain, Partly cloudy
 Wind from WSW
Wind: WSW 8 mph , 13 km/h
Temperature: 1°C
Wind Chill: -3°C
Dew Point: 1°C
Humidity: 100%
Barometer: 995 hPa
Summary: Light snow, Showers, Rain
Clouds: Partly cloudy
Visibility: 6 miles , 9 km
Cloud details: Partly cloudy 152 m
Partly cloudy 335 m
2020/02/25 07:50 EGNM 250750Z 24007KT 180V260 9000 -SHSNRA SCT005 SCT011 01/01 Q0995